sensor_id;sensor_type;location;lat;lon;timestamp;temperature;humidity
65573;SHT30;52214;50.940;13.996;2023-04-01T00:01:46;9.93;93.73
65573;SHT30;52214;50.940;13.996;2023-04-01T00:04:12;9.93;93.74
65573;SHT30;52214;50.940;13.996;2023-04-01T00:06:38;9.90;93.68
65573;SHT30;52214;50.940;13.996;2023-04-01T00:09:03;9.90;93.70
65573;SHT30;52214;50.940;13.996;2023-04-01T00:11:30;9.88;93.71
65573;SHT30;52214;50.940;13.996;2023-04-01T00:13:56;9.90;93.71
65573;SHT30;52214;50.940;13.996;2023-04-01T00:16:22;9.87;93.72
65573;SHT30;52214;50.940;13.996;2023-04-01T00:18:51;9.85;93.67
65573;SHT30;52214;50.940;13.996;2023-04-01T00:21:18;9.85;93.68
65573;SHT30;52214;50.940;13.996;2023-04-01T00:23:44;9.84;93.67
65573;SHT30;52214;50.940;13.996;2023-04-01T00:26:09;9.83;93.64
65573;SHT30;52214;50.940;13.996;2023-04-01T00:28:35;9.78;93.58
65573;SHT30;52214;50.940;13.996;2023-04-01T00:31:06;9.81;93.60
65573;SHT30;52214;50.940;13.996;2023-04-01T00:33:33;9.77;93.59
65573;SHT30;52214;50.940;13.996;2023-04-01T00:36:09;9.78;93.59
65573;SHT30;52214;50.940;13.996;2023-04-01T00:38:36;9.74;93.62
65573;SHT30;52214;50.940;13.996;2023-04-01T00:41:02;9.75;93.56
65573;SHT30;52214;50.940;13.996;2023-04-01T00:43:28;9.73;93.59
65573;SHT30;52214;50.940;13.996;2023-04-01T00:45:54;9.71;93.57
65573;SHT30;52214;50.940;13.996;2023-04-01T00:48:23;9.71;93.58
65573;SHT30;52214;50.940;13.996;2023-04-01T00:50:56;9.71;93.56
65573;SHT30;52214;50.940;13.996;2023-04-01T00:53:23;9.70;93.54
65573;SHT30;52214;50.940;13.996;2023-04-01T00:55:54;9.67;93.58
65573;SHT30;52214;50.940;13.996;2023-04-01T00:58:23;9.66;93.53
65573;SHT30;52214;50.940;13.996;2023-04-01T01:00:50;9.64;93.53
65573;SHT30;52214;50.940;13.996;2023-04-01T01:03:16;9.64;93.52
65573;SHT30;52214;50.940;13.996;2023-04-01T01:11:35;9.58;93.47
65573;SHT30;52214;50.940;13.996;2023-04-01T01:14:12;9.57;93.47
65573;SHT30;52214;50.940;13.996;2023-04-01T01:16:46;9.57;93.44
65573;SHT30;52214;50.940;13.996;2023-04-01T01:19:30;9.54;93.42
65573;SHT30;52214;50.940;13.996;2023-04-01T01:22:20;9.54;93.45
65573;SHT30;52214;50.940;13.996;2023-04-01T01:27:16;9.51;93.43
65573;SHT30;52214;50.940;13.996;2023-04-01T01:29:58;9.49;93.43
65573;SHT30;52214;50.940;13.996;2023-04-01T01:32:38;9.49;93.45
65573;SHT30;52214;50.940;13.996;2023-04-01T01:35:27;9.44;93.48
65573;SHT30;52214;50.940;13.996;2023-04-01T01:38:00;9.43;93.44
65573;SHT30;52214;50.940;13.996;2023-04-01T01:40:28;9.46;93.48
65573;SHT30;52214;50.940;13.996;2023-04-01T01:42:59;9.43;93.50
65573;SHT30;52214;50.940;13.996;2023-04-01T01:45:26;9.40;93.40
65573;SHT30;52214;50.940;13.996;2023-04-01T01:47:54;9.40;93.40
65573;SHT30;52214;50.940;13.996;2023-04-01T01:50:24;9.42;93.40
65573;SHT30;52214;50.940;13.996;2023-04-01T01:52:51;9.39;93.39
65573;SHT30;52214;50.940;13.996;2023-04-01T01:55:33;9.36;93.40
65573;SHT30;52214;50.940;13.996;2023-04-01T01:58:02;9.33;93.41
65573;SHT30;52214;50.940;13.996;2023-04-01T02:00:31;9.32;93.38
65573;SHT30;52214;50.940;13.996;2023-04-01T02:02:58;9.33;93.41
65573;SHT30;52214;50.940;13.996;2023-04-01T02:05:25;9.32;93.40
65573;SHT30;52214;50.940;13.996;2023-04-01T02:08:00;9.28;93.41
65573;SHT30;52214;50.940;13.996;2023-04-01T02:10:29;9.25;93.37
65573;SHT30;52214;50.940;13.996;2023-04-01T02:13:00;9.26;93.36
65573;SHT30;52214;50.940;13.996;2023-04-01T02:15:28;9.25;93.37
65573;SHT30;52214;50.940;13.996;2023-04-01T02:17:56;9.23;93.35
65573;SHT30;52214;50.940;13.996;2023-04-01T02:20:24;9.23;93.34
65573;SHT30;52214;50.940;13.996;2023-04-01T02:22:53;9.22;93.31
65573;SHT30;52214;50.940;13.996;2023-04-01T02:25:25;9.22;93.34
65573;SHT30;52214;50.940;13.996;2023-04-01T02:27:53;9.21;93.30
65573;SHT30;52214;50.940;13.996;2023-04-01T02:30:20;9.21;93.33
65573;SHT30;52214;50.940;13.996;2023-04-01T02:32:49;9.19;93.29
65573;SHT30;52214;50.940;13.996;2023-04-01T02:35:17;9.15;93.31
65573;SHT30;52214;50.940;13.996;2023-04-01T02:37:44;9.18;93.27
65573;SHT30;52214;50.940;13.996;2023-04-01T02:40:13;9.14;93.28
65573;SHT30;52214;50.940;13.996;2023-04-01T02:42:39;9.12;93.29
65573;SHT30;52214;50.940;13.996;2023-04-01T02:45:08;9.14;93.28
65573;SHT30;52214;50.940;13.996;2023-04-01T02:47:34;9.10;93.27
65573;SHT30;52214;50.940;13.996;2023-04-01T02:50:00;9.10;93.33
65573;SHT30;52214;50.940;13.996;2023-04-01T02:52:27;9.10;93.32
65573;SHT30;52214;50.940;13.996;2023-04-01T02:54:54;9.08;93.32
65573;SHT30;52214;50.940;13.996;2023-04-01T02:57:20;9.08;93.32
65573;SHT30;52214;50.940;13.996;2023-04-01T02:59:46;9.07;93.30
65573;SHT30;52214;50.940;13.996;2023-04-01T03:02:12;9.04;93.31
65573;SHT30;52214;50.940;13.996;2023-04-01T03:04:38;9.04;93.28
65573;SHT30;52214;50.940;13.996;2023-04-01T03:07:03;9.04;93.31
65573;SHT30;52214;50.940;13.996;2023-04-01T03:09:29;9.02;93.24
65573;SHT30;52214;50.940;13.996;2023-04-01T03:11:55;9.00;93.26
65573;SHT30;52214;50.940;13.996;2023-04-01T03:14:21;9.00;93.27
65573;SHT30;52214;50.940;13.996;2023-04-01T03:16:47;9.01;93.27
65573;SHT30;52214;50.940;13.996;2023-04-01T03:19:12;8.95;93.20
65573;SHT30;52214;50.940;13.996;2023-04-01T03:21:38;8.97;93.19
65573;SHT30;52214;50.940;13.996;2023-04-01T03:24:05;8.95;93.19
65573;SHT30;52214;50.940;13.996;2023-04-01T03:26:31;8.94;93.14
65573;SHT30;52214;50.940;13.996;2023-04-01T03:28:57;8.95;93.10
65573;SHT30;52214;50.940;13.996;2023-04-01T03:31:23;8.95;93.09
65573;SHT30;52214;50.940;13.996;2023-04-01T03:33:48;8.94;93.07
65573;SHT30;52214;50.940;13.996;2023-04-01T03:36:14;8.94;93.11
65573;SHT30;52214;50.940;13.996;2023-04-01T03:38:41;8.89;93.08
65573;SHT30;52214;50.940;13.996;2023-04-01T03:41:07;8.87;93.06
65573;SHT30;52214;50.940;13.996;2023-04-01T03:43:33;8.91;93.03
65573;SHT30;52214;50.940;13.996;2023-04-01T03:45:58;8.88;93.05
65573;SHT30;52214;50.940;13.996;2023-04-01T03:48:25;8.88;92.99
65573;SHT30;52214;50.940;13.996;2023-04-01T03:50:51;8.85;93.05
65573;SHT30;52214;50.940;13.996;2023-04-01T03:53:17;8.84;93.03
65573;SHT30;52214;50.940;13.996;2023-04-01T03:55:43;8.84;93.02
65573;SHT30;52214;50.940;13.996;2023-04-01T03:58:09;8.83;93.01
65573;SHT30;52214;50.940;13.996;2023-04-01T04:00:35;8.81;93.02
65573;SHT30;52214;50.940;13.996;2023-04-01T04:03:01;8.81;93.02
65573;SHT30;52214;50.940;13.996;2023-04-01T04:05:27;8.81;93.01
65573;SHT30;52214;50.940;13.996;2023-04-01T04:07:53;8.77;93.00
65573;SHT30;52214;50.940;13.996;2023-04-01T04:10:20;8.75;92.99
65573;SHT30;52214;50.940;13.996;2023-04-01T04:12:49;8.74;92.99
65573;SHT30;52214;50.940;13.996;2023-04-01T04:15:15;8.77;92.99
65573;SHT30;52214;50.940;13.996;2023-04-01T04:17:45;8.74;92.97
65573;SHT30;52214;50.940;13.996;2023-04-01T04:20:11;8.73;93.00
65573;SHT30;52214;50.940;13.996;2023-04-01T04:22:36;8.71;92.95
65573;SHT30;52214;50.940;13.996;2023-04-01T04:25:02;8.73;92.95
65573;SHT30;52214;50.940;13.996;2023-04-01T04:27:28;8.70;92.96
65573;SHT30;52214;50.940;13.996;2023-04-01T04:29:53;8.66;92.91
65573;SHT30;52214;50.940;13.996;2023-04-01T04:32:19;8.68;93.00
65573;SHT30;52214;50.940;13.996;2023-04-01T04:34:45;8.66;92.97
65573;SHT30;52214;50.940;13.996;2023-04-01T04:37:10;8.64;93.03
65573;SHT30;52214;50.940;13.996;2023-04-01T04:39:36;8.64;92.97
65573;SHT30;52214;50.940;13.996;2023-04-01T04:42:02;8.66;92.95
65573;SHT30;52214;50.940;13.996;2023-04-01T04:44:28;8.61;92.92
65573;SHT30;52214;50.940;13.996;2023-04-01T04:46:53;8.61;92.96
65573;SHT30;52214;50.940;13.996;2023-04-01T04:49:19;8.60;92.93
65573;SHT30;52214;50.940;13.996;2023-04-01T04:51:44;8.60;92.93
65573;SHT30;52214;50.940;13.996;2023-04-01T04:54:10;8.60;92.91
65573;SHT30;52214;50.940;13.996;2023-04-01T04:56:36;8.61;92.93
65573;SHT30;52214;50.940;13.996;2023-04-01T04:59:02;8.57;92.97
65573;SHT30;52214;50.940;13.996;2023-04-01T05:01:28;8.56;92.86
65573;SHT30;52214;50.940;13.996;2023-04-01T05:03:53;8.54;92.90
65573;SHT30;52214;50.940;13.996;2023-04-01T05:06:19;8.56;92.85
65573;SHT30;52214;50.940;13.996;2023-04-01T05:08:45;8.53;92.83
65573;SHT30;52214;50.940;13.996;2023-04-01T05:11:14;8.53;92.93
65573;SHT30;52214;50.940;13.996;2023-04-01T05:13:41;8.53;92.96
65573;SHT30;52214;50.940;13.996;2023-04-01T05:16:10;8.50;92.88
65573;SHT30;52214;50.940;13.996;2023-04-01T05:18:36;8.49;92.91
65573;SHT30;52214;50.940;13.996;2023-04-01T05:21:01;8.49;92.86
65573;SHT30;52214;50.940;13.996;2023-04-01T05:23:27;8.47;92.85
65573;SHT30;52214;50.940;13.996;2023-04-01T05:25:52;8.45;92.88
65573;SHT30;52214;50.940;13.996;2023-04-01T05:28:19;8.46;92.88
65573;SHT30;52214;50.940;13.996;2023-04-01T05:30:46;8.46;92.84
65573;SHT30;52214;50.940;13.996;2023-04-01T05:33:12;8.43;92.85
65573;SHT30;52214;50.940;13.996;2023-04-01T05:35:39;8.45;92.87
65573;SHT30;52214;50.940;13.996;2023-04-01T05:38:05;8.42;92.89
65573;SHT30;52214;50.940;13.996;2023-04-01T05:40:32;8.40;92.84
65573;SHT30;52214;50.940;13.996;2023-04-01T05:42:58;8.42;92.87
65573;SHT30;52214;50.940;13.996;2023-04-01T05:45:26;8.42;92.79
65573;SHT30;52214;50.940;13.996;2023-04-01T05:47:51;8.38;92.89
65573;SHT30;52214;50.940;13.996;2023-04-01T05:50:17;8.36;92.90
65573;SHT30;52214;50.940;13.996;2023-04-01T05:52:43;8.36;92.87
65573;SHT30;52214;50.940;13.996;2023-04-01T05:55:10;8.36;92.84
65573;SHT30;52214;50.940;13.996;2023-04-01T05:57:36;8.38;92.85
65573;SHT30;52214;50.940;13.996;2023-04-01T06:00:03;8.38;92.84
65573;SHT30;52214;50.940;13.996;2023-04-01T06:02:29;8.35;92.84
65573;SHT30;52214;50.940;13.996;2023-04-01T06:05:08;8.32;92.85
65573;SHT30;52214;50.940;13.996;2023-04-01T06:07:35;8.32;92.87
65573;SHT30;52214;50.940;13.996;2023-04-01T06:10:00;8.30;92.91
65573;SHT30;52214;50.940;13.996;2023-04-01T06:12:39;8.30;92.88
65573;SHT30;52214;50.940;13.996;2023-04-01T06:17:59;8.29;92.87
65573;SHT30;52214;50.940;13.996;2023-04-01T06:20:43;8.29;92.89
65573;SHT30;52214;50.940;13.996;2023-04-01T06:23:29;8.26;92.86
65573;SHT30;52214;50.940;13.996;2023-04-01T06:26:05;8.26;92.90
65573;SHT30;52214;50.940;13.996;2023-04-01T06:34:39;8.29;92.79
65573;SHT30;52214;50.940;13.996;2023-04-01T06:45:41;8.22;92.78
65573;SHT30;52214;50.940;13.996;2023-04-01T06:48:30;8.24;92.82
65573;SHT30;52214;50.940;13.996;2023-04-01T06:51:38;8.22;92.80
65573;SHT30;52214;50.940;13.996;2023-04-01T06:54:14;8.21;92.80
65573;SHT30;52214;50.940;13.996;2023-04-01T06:56:44;8.21;92.82
65573;SHT30;52214;50.940;13.996;2023-04-01T06:59:15;8.21;92.79
65573;SHT30;52214;50.940;13.996;2023-04-01T07:01:45;8.19;92.78
65573;SHT30;52214;50.940;13.996;2023-04-01T07:04:19;8.21;92.78
65573;SHT30;52214;50.940;13.996;2023-04-01T07:06:50;8.16;92.76
65573;SHT30;52214;50.940;13.996;2023-04-01T07:09:22;8.18;92.73
65573;SHT30;52214;50.940;13.996;2023-04-01T07:11:50;8.16;92.73
65573;SHT30;52214;50.940;13.996;2023-04-01T07:14:33;8.16;92.73
65573;SHT30;52214;50.940;13.996;2023-04-01T07:17:22;8.13;92.81
65573;SHT30;52214;50.940;13.996;2023-04-01T07:25:00;8.13;92.74
65573;SHT30;52214;50.940;13.996;2023-04-01T07:27:27;8.12;92.75
65573;SHT30;52214;50.940;13.996;2023-04-01T07:29:56;8.12;92.75
65573;SHT30;52214;50.940;13.996;2023-04-01T07:32:39;8.12;92.73
65573;SHT30;52214;50.940;13.996;2023-04-01T07:35:29;8.11;92.70
65573;SHT30;52214;50.940;13.996;2023-04-01T07:40:39;8.11;92.72
65573;SHT30;52214;50.940;13.996;2023-04-01T07:43:25;8.11;92.73
65573;SHT30;52214;50.940;13.996;2023-04-01T07:46:21;8.06;92.70
65573;SHT30;52214;50.940;13.996;2023-04-01T07:51:21;8.06;92.72
65573;SHT30;52214;50.940;13.996;2023-04-01T07:54:00;8.08;92.71
65573;SHT30;52214;50.940;13.996;2023-04-01T07:56:42;8.08;92.71
65573;SHT30;52214;50.940;13.996;2023-04-01T07:59:30;8.08;92.67
65573;SHT30;52214;50.940;13.996;2023-04-01T08:02:24;8.05;92.66
65573;SHT30;52214;50.940;13.996;2023-04-01T08:07:50;8.04;92.74
65573;SHT30;52214;50.940;13.996;2023-04-01T08:10:44;8.04;92.64
65573;SHT30;52214;50.940;13.996;2023-04-01T08:21:28;8.01;92.66
65573;SHT30;52214;50.940;13.996;2023-04-01T08:24:00;8.04;92.65
65573;SHT30;52214;50.940;13.996;2023-04-01T08:26:42;7.99;92.64
65573;SHT30;52214;50.940;13.996;2023-04-01T08:31:56;8.01;92.62
65573;SHT30;52214;50.940;13.996;2023-04-01T08:34:26;8.04;92.55
65573;SHT30;52214;50.940;13.996;2023-04-01T08:37:00;7.99;92.56
65573;SHT30;52214;50.940;13.996;2023-04-01T08:39:33;7.97;92.61
65573;SHT30;52214;50.940;13.996;2023-04-01T08:45:07;7.98;92.54
65573;SHT30;52214;50.940;13.996;2023-04-01T08:53:06;7.97;92.51
65573;SHT30;52214;50.940;13.996;2023-04-01T09:22:50;7.92;92.48
65573;SHT30;52214;50.940;13.996;2023-04-01T09:25:29;7.91;92.45
65573;SHT30;52214;50.940;13.996;2023-04-01T09:28:19;7.91;92.50
65573;SHT30;52214;50.940;13.996;2023-04-01T09:31:03;7.88;92.56
65573;SHT30;52214;50.940;13.996;2023-04-01T09:33:53;7.87;92.54
65573;SHT30;52214;50.940;13.996;2023-04-01T09:36:46;7.88;92.53
65573;SHT30;52214;50.940;13.996;2023-04-01T09:41:48;7.90;92.48
65573;SHT30;52214;50.940;13.996;2023-04-01T09:58:13;7.84;92.55
65573;SHT30;52214;50.940;13.996;2023-04-01T10:01:10;7.83;92.59
65573;SHT30;52214;50.940;13.996;2023-04-01T10:12:37;7.80;92.69
65573;SHT30;52214;50.940;13.996;2023-04-01T10:15:33;7.80;92.64
65573;SHT30;52214;50.940;13.996;2023-04-01T10:40:27;7.78;92.53
65573;SHT30;52214;50.940;13.996;2023-04-01T10:53:49;7.77;92.49
65573;SHT30;52214;50.940;13.996;2023-04-01T10:56:42;7.77;92.50
65573;SHT30;52214;50.940;13.996;2023-04-01T11:10:51;7.74;92.48
65573;SHT30;52214;50.940;13.996;2023-04-01T11:16:34;7.73;92.48
65573;SHT30;52214;50.940;13.996;2023-04-01T11:19:31;7.71;92.51
65573;SHT30;52214;50.940;13.996;2023-04-01T11:22:33;7.75;92.48
65573;SHT30;52214;50.940;13.996;2023-04-01T11:27:59;7.71;92.49
65573;SHT30;52214;50.940;13.996;2023-04-01T11:30:32;7.71;92.56
65573;SHT30;52214;50.940;13.996;2023-04-01T11:33:23;7.70;92.49
65573;SHT30;52214;50.940;13.996;2023-04-01T11:36:19;7.69;92.46
65573;SHT30;52214;50.940;13.996;2023-04-01T11:39:03;7.70;92.51
65573;SHT30;52214;50.940;13.996;2023-04-01T11:53:05;7.67;92.51
65573;SHT30;52214;50.940;13.996;2023-04-01T11:55:54;7.70;92.50
65573;SHT30;52214;50.940;13.996;2023-04-01T11:58:48;7.69;92.51
65573;SHT30;52214;50.940;13.996;2023-04-01T12:15:20;7.67;92.52
65573;SHT30;52214;50.940;13.996;2023-04-01T12:29:21;7.67;92.43
65573;SHT30;52214;50.940;13.996;2023-04-01T12:32:15;7.64;92.41
65573;SHT30;52214;50.940;13.996;2023-04-01T12:46:02;7.63;92.40
65573;SHT30;52214;50.940;13.996;2023-04-01T12:49:09;7.64;92.36
65573;SHT30;52214;50.940;13.996;2023-04-01T13:11:41;7.63;92.29
65573;SHT30;52214;50.940;13.996;2023-04-01T13:14:36;7.63;92.32
65573;SHT30;52214;50.940;13.996;2023-04-01T13:19:54;7.59;92.31
65573;SHT30;52214;50.940;13.996;2023-04-01T13:25:32;7.56;92.35
65573;SHT30;52214;50.940;13.996;2023-04-01T13:28:12;7.57;92.29
65573;SHT30;52214;50.940;13.996;2023-04-01T13:31:02;7.57;92.32
65573;SHT30;52214;50.940;13.996;2023-04-01T13:33:45;7.59;92.32
65573;SHT30;52214;50.940;13.996;2023-04-01T13:42:28;7.56;92.31
65573;SHT30;52214;50.940;13.996;2023-04-01T13:45:02;7.56;92.25
65573;SHT30;52214;50.940;13.996;2023-04-01T13:47:41;7.57;92.33
65573;SHT30;52214;50.940;13.996;2023-04-01T13:50:33;7.56;92.29
65573;SHT30;52214;50.940;13.996;2023-04-01T13:53:16;7.55;92.29
65573;SHT30;52214;50.940;13.996;2023-04-01T13:58:53;7.55;92.29
65573;SHT30;52214;50.940;13.996;2023-04-01T14:01:30;7.55;92.28
65573;SHT30;52214;50.940;13.996;2023-04-01T14:04:22;7.55;92.28
65573;SHT30;52214;50.940;13.996;2023-04-01T14:13:05;7.53;92.22
65573;SHT30;52214;50.940;13.996;2023-04-01T14:15:55;7.47;92.29
65573;SHT30;52214;50.940;13.996;2023-04-01T14:18:50;7.52;92.24
65573;SHT30;52214;50.940;13.996;2023-04-01T14:29:57;7.50;92.26
65573;SHT30;52214;50.940;13.996;2023-04-01T14:32:52;7.52;92.23
65573;SHT30;52214;50.940;13.996;2023-04-01T14:38:11;7.46;92.22
65573;SHT30;52214;50.940;13.996;2023-04-01T14:40:54;7.50;92.20
65573;SHT30;52214;50.940;13.996;2023-04-01T14:43:47;7.50;92.21
65573;SHT30;52214;50.940;13.996;2023-04-01T14:49:00;7.50;92.19
65573;SHT30;52214;50.940;13.996;2023-04-01T14:51:33;7.49;92.14
65573;SHT30;52214;50.940;13.996;2023-04-01T14:54:21;7.47;92.16
65573;SHT30;52214;50.940;13.996;2023-04-01T15:00:00;7.46;92.16
65573;SHT30;52214;50.940;13.996;2023-04-01T15:08:10;7.45;92.22
65573;SHT30;52214;50.940;13.996;2023-04-01T15:24:46;7.40;92.20
65573;SHT30;52214;50.940;13.996;2023-04-01T15:27:21;7.40;92.21
65573;SHT30;52214;50.940;13.996;2023-04-01T15:30:02;7.40;92.20
65573;SHT30;52214;50.940;13.996;2023-04-01T15:32:46;7.40;92.18
65573;SHT30;52214;50.940;13.996;2023-04-01T15:35:31;7.39;92.17
65573;SHT30;52214;50.940;13.996;2023-04-01T15:38:14;7.38;92.18
65573;SHT30;52214;50.940;13.996;2023-04-01T15:41:02;7.39;92.22
65573;SHT30;52214;50.940;13.996;2023-04-01T15:43:41;7.40;92.18
65573;SHT30;52214;50.940;13.996;2023-04-01T15:46:41;7.39;92.09
65573;SHT30;52214;50.940;13.996;2023-04-01T15:49:33;7.33;92.12
65573;SHT30;52214;50.940;13.996;2023-04-01T15:52:15;7.38;92.15
65573;SHT30;52214;50.940;13.996;2023-04-01T15:54:52;7.36;92.07
65573;SHT30;52214;50.940;13.996;2023-04-01T15:57:40;7.33;92.07
65573;SHT30;52214;50.940;13.996;2023-04-01T16:06:00;7.33;92.14
65573;SHT30;52214;50.940;13.996;2023-04-01T16:09:06;7.30;92.15
65573;SHT30;52214;50.940;13.996;2023-04-01T16:11:51;7.33;92.09
65573;SHT30;52214;50.940;13.996;2023-04-01T16:17:04;7.32;92.01
65573;SHT30;52214;50.940;13.996;2023-04-01T16:19:37;7.33;92.00
65573;SHT30;52214;50.940;13.996;2023-04-01T16:22:12;7.30;92.01
65573;SHT30;52214;50.940;13.996;2023-04-01T16:24:44;7.32;92.02
65573;SHT30;52214;50.940;13.996;2023-04-01T16:33:03;7.30;91.94
65573;SHT30;52214;50.940;13.996;2023-04-01T16:35:55;7.29;91.96
65573;SHT30;52214;50.940;13.996;2023-04-01T16:41:07;7.29;91.90
65573;SHT30;52214;50.940;13.996;2023-04-01T16:43:56;7.29;91.90
65573;SHT30;52214;50.940;13.996;2023-04-01T16:46:33;7.26;91.88
65573;SHT30;52214;50.940;13.996;2023-04-01T16:49:25;7.29;91.87
65573;SHT30;52214;50.940;13.996;2023-04-01T16:54:35;7.28;91.85
65573;SHT30;52214;50.940;13.996;2023-04-01T16:57:12;7.28;91.83
65573;SHT30;52214;50.940;13.996;2023-04-01T17:00:10;7.28;91.80
65573;SHT30;52214;50.940;13.996;2023-04-01T17:05:09;7.22;91.84
65573;SHT30;52214;50.940;13.996;2023-04-01T17:07:49;7.25;91.87
65573;SHT30;52214;50.940;13.996;2023-04-01T17:16:10;7.22;91.84
65573;SHT30;52214;50.940;13.996;2023-04-01T17:18:47;7.22;91.83
65573;SHT30;52214;50.940;13.996;2023-04-01T17:21:21;7.23;91.86
65573;SHT30;52214;50.940;13.996;2023-04-01T17:24:04;7.22;91.82
65573;SHT30;52214;50.940;13.996;2023-04-01T17:26:40;7.22;91.82
65573;SHT30;52214;50.940;13.996;2023-04-01T17:29:19;7.19;91.76
65573;SHT30;52214;50.940;13.996;2023-04-01T17:32:11;7.22;91.71
65573;SHT30;52214;50.940;13.996;2023-04-01T17:35:16;7.19;91.70
65573;SHT30;52214;50.940;13.996;2023-04-01T17:40:29;7.19;91.68
65573;SHT30;52214;50.940;13.996;2023-04-01T17:43:12;7.16;91.71
65573;SHT30;52214;50.940;13.996;2023-04-01T17:45:58;7.19;91.63
65573;SHT30;52214;50.940;13.996;2023-04-01T17:48:41;7.16;91.59
65573;SHT30;52214;50.940;13.996;2023-04-01T17:53:59;7.16;91.57
65573;SHT30;52214;50.940;13.996;2023-04-01T17:56:56;7.15;91.60
65573;SHT30;52214;50.940;13.996;2023-04-01T18:02:09;7.14;91.63
65573;SHT30;52214;50.940;13.996;2023-04-01T18:13:14;7.11;91.56
65573;SHT30;52214;50.940;13.996;2023-04-01T18:15:57;7.14;91.55
65573;SHT30;52214;50.940;13.996;2023-04-01T18:18:37;7.14;91.53
65573;SHT30;52214;50.940;13.996;2023-04-01T18:26:38;7.12;91.42
65573;SHT30;52214;50.940;13.996;2023-04-01T18:29:34;7.09;91.45
65573;SHT30;52214;50.940;13.996;2023-04-01T18:32:27;7.09;91.44
65573;SHT30;52214;50.940;13.996;2023-04-01T18:35:08;7.09;91.42
65573;SHT30;52214;50.940;13.996;2023-04-01T18:37:44;7.09;91.32
65573;SHT30;52214;50.940;13.996;2023-04-01T18:40:34;7.09;91.37
65573;SHT30;52214;50.940;13.996;2023-04-01T18:48:50;7.08;91.37
65573;SHT30;52214;50.940;13.996;2023-04-01T18:51:24;7.08;91.34
65573;SHT30;52214;50.940;13.996;2023-04-01T18:53:57;7.05;91.35
65573;SHT30;52214;50.940;13.996;2023-04-01T18:56:41;7.05;91.29
65573;SHT30;52214;50.940;13.996;2023-04-01T19:04:52;7.08;91.18
65573;SHT30;52214;50.940;13.996;2023-04-01T19:07:45;7.05;91.20
65573;SHT30;52214;50.940;13.996;2023-04-01T19:12:46;7.04;91.18
65573;SHT30;52214;50.940;13.996;2023-04-01T19:15:27;7.05;91.16
65573;SHT30;52214;50.940;13.996;2023-04-01T19:26:05;7.01;91.07
65573;SHT30;52214;50.940;13.996;2023-04-01T19:28:51;7.02;91.02
65573;SHT30;52214;50.940;13.996;2023-04-01T19:34:46;6.97;91.07
65573;SHT30;52214;50.940;13.996;2023-04-01T19:40:06;6.98;91.01
65573;SHT30;52214;50.940;13.996;2023-04-01T19:42:47;6.98;91.04
65573;SHT30;52214;50.940;13.996;2023-04-01T19:48:29;6.97;90.93
65573;SHT30;52214;50.940;13.996;2023-04-01T19:51:25;6.94;90.93
65573;SHT30;52214;50.940;13.996;2023-04-01T19:56:24;6.94;90.94
65573;SHT30;52214;50.940;13.996;2023-04-01T19:59:19;6.91;90.98
65573;SHT30;52214;50.940;13.996;2023-04-01T20:04:46;6.90;90.93
65573;SHT30;52214;50.940;13.996;2023-04-01T20:07:35;6.92;90.86
65573;SHT30;52214;50.940;13.996;2023-04-01T20:15:29;6.88;90.93
65573;SHT30;52214;50.940;13.996;2023-04-01T20:20:26;6.90;90.87
65573;SHT30;52214;50.940;13.996;2023-04-01T20:23:21;6.88;90.85
65573;SHT30;52214;50.940;13.996;2023-04-01T20:28:28;6.87;90.90
65573;SHT30;52214;50.940;13.996;2023-04-01T20:31:34;6.85;90.88
65573;SHT30;52214;50.940;13.996;2023-04-01T20:36:50;6.84;90.91
65573;SHT30;52214;50.940;13.996;2023-04-01T20:39:40;6.85;90.86
65573;SHT30;52214;50.940;13.996;2023-04-01T20:42:27;6.83;90.91
65573;SHT30;52214;50.940;13.996;2023-04-01T20:50:50;6.80;90.85
65573;SHT30;52214;50.940;13.996;2023-04-01T20:53:25;6.81;90.85
65573;SHT30;52214;50.940;13.996;2023-04-01T20:56:26;6.84;90.82
65573;SHT30;52214;50.940;13.996;2023-04-01T21:10:12;6.77;90.84
65573;SHT30;52214;50.940;13.996;2023-04-01T21:12:53;6.74;90.80
65573;SHT30;52214;50.940;13.996;2023-04-01T21:15:30;6.79;90.77
65573;SHT30;52214;50.940;13.996;2023-04-01T21:18:10;6.79;90.77
65573;SHT30;52214;50.940;13.996;2023-04-01T21:20:49;6.77;90.76
65573;SHT30;52214;50.940;13.996;2023-04-01T21:35:27;6.73;90.66
65573;SHT30;52214;50.940;13.996;2023-04-01T21:38:20;6.74;90.71
65573;SHT30;52214;50.940;13.996;2023-04-01T21:46:29;6.70;90.73
65573;SHT30;52214;50.940;13.996;2023-04-01T21:54:56;6.70;90.70
65573;SHT30;52214;50.940;13.996;2023-04-01T21:57:55;6.72;90.66
65573;SHT30;52214;50.940;13.996;2023-04-01T22:00:48;6.70;90.62
65573;SHT30;52214;50.940;13.996;2023-04-01T22:03:38;6.67;90.69
65573;SHT30;52214;50.940;13.996;2023-04-01T22:06:22;6.67;90.65
65573;SHT30;52214;50.940;13.996;2023-04-01T22:09:00;6.67;90.68
65573;SHT30;52214;50.940;13.996;2023-04-01T22:16:59;6.66;90.60
65573;SHT30;52214;50.940;13.996;2023-04-01T22:19:55;6.67;90.56
65573;SHT30;52214;50.940;13.996;2023-04-01T22:28:11;6.66;90.61
65573;SHT30;52214;50.940;13.996;2023-04-01T22:30:43;6.64;90.62
65573;SHT30;52214;50.940;13.996;2023-04-01T22:33:11;6.64;90.59
65573;SHT30;52214;50.940;13.996;2023-04-01T22:36:02;6.66;90.62
65573;SHT30;52214;50.940;13.996;2023-04-01T22:38:47;6.64;90.58
65573;SHT30;52214;50.940;13.996;2023-04-01T22:41:46;6.63;90.58
65573;SHT30;52214;50.940;13.996;2023-04-01T22:55:25;6.58;90.57
65573;SHT30;52214;50.940;13.996;2023-04-01T22:57:59;6.62;90.53
65573;SHT30;52214;50.940;13.996;2023-04-01T23:00:32;6.60;90.58
65573;SHT30;52214;50.940;13.996;2023-04-01T23:03:22;6.60;90.59
65573;SHT30;52214;50.940;13.996;2023-04-01T23:08:54;6.57;90.58
65573;SHT30;52214;50.940;13.996;2023-04-01T23:11:27;6.58;90.59
65573;SHT30;52214;50.940;13.996;2023-04-01T23:14:28;6.62;90.55
65573;SHT30;52214;50.940;13.996;2023-04-01T23:22:34;6.56;90.60
65573;SHT30;52214;50.940;13.996;2023-04-01T23:27:56;6.54;90.58
65573;SHT30;52214;50.940;13.996;2023-04-01T23:30:46;6.54;90.57
65573;SHT30;52214;50.940;13.996;2023-04-01T23:38:15;6.52;90.57
65573;SHT30;52214;50.940;13.996;2023-04-01T23:40:41;6.53;90.60
65573;SHT30;52214;50.940;13.996;2023-04-01T23:43:24;6.52;90.58
65573;SHT30;52214;50.940;13.996;2023-04-01T23:45:53;6.54;90.58
65573;SHT30;52214;50.940;13.996;2023-04-01T23:48:24;6.53;90.52
65573;SHT30;52214;50.940;13.996;2023-04-01T23:50:51;6.53;90.59
65573;SHT30;52214;50.940;13.996;2023-04-01T23:53:21;6.52;90.57
65573;SHT30;52214;50.940;13.996;2023-04-01T23:55:49;6.52;90.61
65573;SHT30;52214;50.940;13.996;2023-04-01T23:58:24;6.49;90.60
